Time;durP1;ratioP1;P1;durP2;ratioP2;P2;SDS_P1;SDS_P2;PMS_P1;PMS_P2;Temp;Humidity;BMP_temperature;BMP_pressure;BME280_temperature;BME280_humidity;BME280_pressure;Samples;Min_cycle;Max_cycle;Signal;HPM_P1;HPM_P2
2020/12/11 00:00:22;;;;;;;40.70;23.20;;;;;;;0.75;84.49;97953.50;5053134;28;20501;-79
2020/12/11 00:02:48;;;;;;;42.17;21.80;;;;;;;0.97;84.68;97976.31;5053646;28;20053;-79
2020/12/11 00:05:15;;;;;;;43.17;20.83;;;;;;;0.80;85.17;97973.47;5053006;28;20045;-79
2020/12/11 00:07:42;;;;;;;42.90;23.10;;;;;;;0.74;85.60;97981.25;5053578;28;20126;-79
2020/12/11 00:10:10;;;;;;;35.23;20.87;;;;;;;0.70;85.73;97962.00;5061066;28;20044;-79
2020/12/11 00:12:36;;;;;;;29.03;13.80;;;;;;;0.70;85.52;97953.97;5073197;28;20052;-79
2020/12/11 00:15:05;;;;;;;28.52;14.43;;;;;;;0.80;85.08;97968.13;5073073;28;20044;-79
2020/12/11 00:17:33;;;;;;;27.08;13.75;;;;;;;0.91;85.30;97974.25;5053419;28;20293;-79
2020/12/11 00:19:59;;;;;;;26.23;13.97;;;;;;;0.96;84.77;97969.25;5053495;28;20057;-79
2020/12/11 00:22:25;;;;;;;40.27;19.20;;;;;;;0.97;84.94;97963.75;5052196;28;20670;-79
2020/12/11 00:24:52;;;;;;;42.33;18.37;;;;;;;0.92;84.49;97946.47;5052876;28;20056;-79
2020/12/11 00:27:19;;;;;;;35.63;15.97;;;;;;;0.83;85.40;97951.75;5053028;28;20040;-79
2020/12/11 00:29:46;;;;;;;34.40;15.60;;;;;;;0.85;85.22;97968.50;5053129;28;20053;-79
2020/12/11 00:32:12;;;;;;;27.85;12.80;;;;;;;0.68;86.03;97942.59;5053176;28;20057;-79
2020/12/11 00:34:42;;;;;;;27.40;13.17;;;;;;;0.77;85.48;97957.72;5050970;28;20451;-79
2020/12/11 00:37:09;;;;;;;26.58;13.40;;;;;;;0.68;86.17;97939.91;5050597;28;20140;-79
2020/12/11 00:39:35;;;;;;;29.35;12.95;;;;;;;0.65;86.25;97935.69;5052244;28;20095;-79
2020/12/11 00:42:01;;;;;;;22.87;12.67;;;;;;;0.78;85.87;97948.69;5053088;28;20052;-79
2020/12/11 00:44:27;;;;;;;26.77;13.17;;;;;;;0.68;85.75;97931.88;5068760;28;20098;-79
2020/12/11 00:46:55;;;;;;;30.57;13.70;;;;;;;0.83;86.43;97965.13;5073273;28;20106;-79
2020/12/11 00:49:21;;;;;;;27.87;13.47;;;;;;;0.74;86.50;97962.50;5072992;28;20460;-79
2020/12/11 00:51:53;;;;;;;25.45;12.13;;;;;;;0.82;86.18;97978.66;5072772;28;20484;-79
2020/12/11 00:54:19;;;;;;;23.90;11.38;;;;;;;0.82;86.24;97966.13;5070829;28;20122;-79
2020/12/11 00:56:46;;;;;;;32.03;12.47;;;;;;;0.94;85.67;97955.19;5052557;28;20045;-79
2020/12/11 00:59:12;;;;;;;30.23;12.53;;;;;;;0.95;85.51;97943.47;5053084;28;20056;-79
2020/12/11 01:01:38;;;;;;;28.40;13.30;;;;;;;0.93;84.58;97918.72;5052753;28;20056;-79
2020/12/11 01:04:05;;;;;;;26.07;13.13;;;;;;;1.08;84.39;97938.59;5053179;28;20440;-79
2020/12/11 01:06:31;;;;;;;30.05;13.63;;;;;;;1.09;84.28;97916.19;5052550;28;20071;-79
2020/12/11 01:08:58;;;;;;;28.90;13.57;;;;;;;0.93;84.49;97903.50;5052641;28;20119;-79
2020/12/11 01:11:25;;;;;;;24.15;12.60;;;;;;;0.99;84.93;97921.59;5052846;28;20053;-79
2020/12/11 01:13:51;;;;;;;25.93;12.40;;;;;;;0.92;84.90;97925.91;5052849;28;20049;-79
2020/12/11 01:16:17;;;;;;;23.98;12.35;;;;;;;0.94;83.78;97912.38;5051737;28;20100;-79
2020/12/11 01:18:44;;;;;;;27.30;14.13;;;;;;;0.93;83.90;97906.16;5052631;28;20045;-79
2020/12/11 01:21:10;;;;;;;28.10;12.47;;;;;;;0.92;84.33;97909.00;5052951;28;20044;-79
2020/12/11 01:23:37;;;;;;;27.40;13.33;;;;;;;0.81;84.49;97915.44;5052640;28;20094;-79
2020/12/11 01:26:07;;;;;;;27.42;13.07;;;;;;;0.77;85.13;97908.72;5052593;28;20429;-79
2020/12/11 01:28:33;;;;;;;;;;;;;;;0.86;84.68;97895.25;5052551;28;20049;-79
2020/12/11 01:30:59;;;;;;;25.10;11.53;;;;;;;0.70;84.33;97881.75;5052425;28;19928;-79
2020/12/11 01:33:25;;;;;;;35.33;14.30;;;;;;;0.85;84.01;97888.22;5055426;28;20386;-79
2020/12/11 01:35:54;;;;;;;25.93;13.53;;;;;;;0.82;83.98;97872.47;5054294;28;20514;-79
2020/12/11 01:38:21;;;;;;;27.15;13.90;;;;;;;0.96;83.59;97863.03;5055741;28;20118;-79
2020/12/11 01:40:47;;;;;;;29.93;13.97;;;;;;;0.95;83.19;97852.50;5071203;28;20052;-79
2020/12/11 01:43:14;;;;;;;27.67;13.27;;;;;;;0.94;83.51;97853.50;5075752;28;20045;-79
2020/12/11 01:45:41;;;;;;;27.80;12.60;;;;;;;0.77;83.79;97852.53;5060026;28;20042;-79
2020/12/11 01:48:08;;;;;;;27.00;13.60;;;;;;;0.76;84.22;97854.38;5036015;28;20045;-79
2020/12/11 01:50:35;;;;;;;27.97;13.30;;;;;;;0.71;84.20;97845.97;5039160;28;20107;-79
2020/12/11 01:53:01;;;;;;;24.47;10.97;;;;;;;0.76;84.38;97864.25;5056152;28;20044;-79
2020/12/11 01:55:27;;;;;;;29.03;13.77;;;;;;;0.68;84.26;97865.84;5055686;28;20057;-79
2020/12/11 01:58:01;;;;;;;28.13;13.83;;;;;;;0.63;84.29;97868.16;5056093;28;20443;-79
2020/12/11 02:00:29;;;;;;;28.93;13.37;;;;;;;0.70;85.69;97871.03;5056208;28;20057;-79
2020/12/11 02:03:04;;;;;;;29.77;13.73;;;;;;;0.66;85.21;97861.63;5075670;28;20098;-79
2020/12/11 02:05:30;;;;;;;30.00;14.60;;;;;;;0.77;85.01;97871.25;5075634;28;20503;-79
2020/12/11 02:07:57;;;;;;;26.20;13.37;;;;;;;0.77;85.12;97856.06;5075777;28;20480;-79
2020/12/11 02:10:23;;;;;;;23.77;12.32;;;;;;;0.71;85.74;97854.00;5075481;28;20072;-79
2020/12/11 02:12:49;;;;;;;26.67;13.00;;;;;;;0.73;84.88;97851.19;5075633;28;20094;-79
2020/12/11 02:15:16;;;;;;;30.37;13.67;;;;;;;0.72;85.62;97852.16;5075582;28;20055;-79
2020/12/11 02:17:43;;;;;;;27.60;14.63;;;;;;;0.53;85.79;97830.78;5075025;28;20052;-79
2020/12/11 02:20:09;;;;;;;26.43;14.40;;;;;;;0.64;85.10;97831.53;5075704;28;20044;-79
2020/12/11 02:22:37;;;;;;;24.20;11.77;;;;;;;0.64;85.24;97832.38;5064426;28;20056;-79
2020/12/11 02:25:03;;;;;;;26.10;12.88;;;;;;;0.62;85.12;97815.66;5055090;28;20830;-79
2020/12/11 02:27:30;;;;;;;30.55;13.75;;;;;;;0.49;85.04;97786.63;5055616;28;20048;-79
2020/12/11 02:29:56;;;;;;;25.38;12.23;;;;;;;0.41;84.98;97788.41;5055665;28;20186;-79
2020/12/11 02:32:22;;;;;;;30.83;14.17;;;;;;;0.52;85.07;97797.00;5055716;28;20107;-79
2020/12/11 02:34:49;;;;;;;25.10;11.90;;;;;;;0.56;84.74;97810.91;5053648;28;20131;-79
2020/12/11 02:37:15;;;;;;;23.67;13.23;;;;;;;0.52;84.44;97798.84;5052749;28;20049;-79
2020/12/11 02:39:44;;;;;;;26.33;12.73;;;;;;;0.59;84.39;97809.75;5054606;28;20049;-79
2020/12/11 02:42:10;;;;;;;23.60;11.97;;;;;;;0.39;84.15;97777.84;5055199;28;20049;-79
2020/12/11 02:44:36;;;;;;;30.90;13.10;;;;;;;0.38;84.49;97773.50;5053981;28;20041;-79
2020/12/11 02:47:03;;;;;;;26.00;12.90;;;;;;;0.49;83.80;97783.09;5055247;28;20049;-79
2020/12/11 02:49:29;;;;;;;25.43;12.70;;;;;;;0.41;83.77;97767.00;5054949;28;20052;-79
2020/12/11 02:51:55;;;;;;;23.90;12.60;;;;;;;0.29;83.91;97753.03;5054754;28;20045;-79
2020/12/11 02:54:21;;;;;;;21.07;11.77;;;;;;;0.33;83.37;97757.94;5054618;28;20098;-79
2020/12/11 02:56:49;;;;;;;21.77;11.73;;;;;;;0.26;83.76;97737.31;5054551;28;20045;-79
2020/12/11 02:59:15;;;;;;;21.57;11.90;;;;;;;0.35;83.43;97750.56;5055137;28;20049;-79
2020/12/11 03:01:41;;;;;;;25.20;11.97;;;;;;;0.37;83.30;97747.75;5054630;28;20497;-79
2020/12/11 03:04:07;;;;;;;23.73;12.20;;;;;;;0.14;83.10;97726.84;5054678;28;20049;-80
2020/12/11 03:06:35;;;;;;;23.57;12.70;;;;;;;0.05;82.99;97718.94;5054708;28;20045;-79
2020/12/11 03:09:02;;;;;;;22.33;11.97;;;;;;;-0.02;83.57;97714.19;5054489;28;20111;-79
2020/12/11 03:11:29;;;;;;;26.03;12.43;;;;;;;0.08;84.27;97727.47;5054237;28;20102;-79
2020/12/11 03:13:56;;;;;;;26.03;12.13;;;;;;;0.20;83.90;97751.28;5054786;28;20076;-79
2020/12/11 03:16:22;;;;;;;23.63;12.17;;;;;;;0.06;84.05;97734.81;5054034;28;20078;-79
2020/12/11 03:18:49;;;;;;;26.30;13.70;;;;;;;0.01;84.10;97717.56;5054556;28;20049;-79
2020/12/11 03:21:16;;;;;;;22.00;13.37;;;;;;;0.10;84.33;97728.16;5054598;28;20082;-79
2020/12/11 03:23:42;;;;;;;24.63;13.10;;;;;;;0.16;84.80;97743.56;5054109;28;20099;-79
2020/12/11 03:26:09;;;;;;;25.33;12.40;;;;;;;0.04;85.03;97730.59;5054453;28;20045;-79
2020/12/11 03:28:35;;;;;;;26.67;13.60;;;;;;;0.12;84.14;97746.69;5054550;28;20049;-79
2020/12/11 03:31:03;;;;;;;23.47;12.43;;;;;;;0.02;84.50;97721.91;5054252;28;20049;-79
2020/12/11 03:33:30;;;;;;;21.97;12.23;;;;;;;0.05;84.49;97716.25;5054047;28;20048;-79
2020/12/11 03:35:56;;;;;;;23.37;12.67;;;;;;;-0.05;84.97;97719.81;5051521;28;20045;-79
2020/12/11 03:38:23;;;;;;;26.23;12.50;;;;;;;-0.28;84.81;97692.75;5051862;28;20513;-79
2020/12/11 03:40:52;;;;;;;22.13;12.00;;;;;;;-0.37;85.08;97673.13;5053588;28;20102;-79
2020/12/11 03:43:18;;;;;;;25.17;12.53;;;;;;;-0.23;85.01;97711.81;5054030;28;20115;-79
2020/12/11 03:45:44;;;;;;;24.70;13.03;;;;;;;-0.29;85.11;97693.72;5053608;28;20485;-79
2020/12/11 03:48:11;;;;;;;22.47;12.23;;;;;;;-0.31;85.28;97700.22;5053927;28;20045;-79
2020/12/11 03:50:38;;;;;;;25.00;13.80;;;;;;;-0.23;85.10;97713.66;5053901;28;20556;-79
2020/12/11 03:53:04;;;;;;;25.90;12.97;;;;;;;-0.34;85.51;97696.03;5053651;28;20075;-79
2020/12/11 03:55:31;;;;;;;21.83;12.37;;;;;;;-0.42;85.54;97682.56;5053743;28;20049;-79
2020/12/11 03:57:58;;;;;;;25.13;12.83;;;;;;;-0.43;85.70;97686.25;5053911;28;20045;-79
2020/12/11 04:00:24;;;;;;;23.30;12.77;;;;;;;-0.54;85.70;97674.81;5053885;28;20068;-80
2020/12/11 04:02:50;;;;;;;24.27;11.97;;;;;;;-0.40;85.33;97677.94;5053546;28;20057;-78
2020/12/11 04:05:17;;;;;;;26.37;12.60;;;;;;;-0.50;84.87;97670.00;5051804;28;20052;-79
2020/12/11 04:07:43;;;;;;;20.83;11.60;;;;;;;-0.53;85.11;97670.28;5052176;28;20052;-79
2020/12/11 04:10:10;;;;;;;24.73;12.00;;;;;;;-0.51;85.15;97673.69;5051513;28;20090;-79
2020/12/11 04:12:36;;;;;;;26.77;11.70;;;;;;;-0.51;85.68;97665.66;5051742;28;20079;-79
2020/12/11 04:15:02;;;;;;;21.87;12.57;;;;;;;-0.63;85.50;97648.16;5051819;28;20053;-79
2020/12/11 04:17:29;;;;;;;24.73;11.43;;;;;;;-0.74;85.72;97635.88;5052376;28;20045;-79
2020/12/11 04:19:55;;;;;;;22.93;12.60;;;;;;;-0.59;85.72;97646.88;5053472;28;20052;-79
2020/12/11 04:22:24;;;;;;;22.60;11.97;;;;;;;-0.51;85.52;97640.78;5052626;28;20052;-79
2020/12/11 04:24:50;;;;;;;25.25;12.68;;;;;;;-0.65;85.93;97632.31;5052894;28;20106;-79
2020/12/11 04:27:16;;;;;;;20.83;11.93;;;;;;;-0.69;86.04;97628.28;5053166;28;20049;-79
2020/12/11 04:29:43;;;;;;;25.83;12.27;;;;;;;-0.62;85.91;97632.00;5052833;28;20102;-79
2020/12/11 04:32:09;;;;;;;24.17;13.07;;;;;;;-0.71;86.03;97614.22;5052952;28;20405;-78
2020/12/11 04:34:35;;;;;;;21.97;12.50;;;;;;;-0.68;86.06;97623.78;5052059;28;20048;-79
2020/12/11 04:37:01;;;;;;;26.13;12.27;;;;;;;-0.74;86.03;97615.41;5048451;28;20119;-79
2020/12/11 04:39:30;;;;;;;21.90;11.80;;;;;;;-0.83;85.98;97604.78;5052501;28;20095;-78
2020/12/11 04:41:58;;;;;;;22.10;11.47;;;;;;;-0.74;85.90;97626.06;5053315;28;20053;-78
2020/12/11 04:44:26;;;;;;;23.27;12.03;;;;;;;-0.84;86.46;97619.94;5052753;28;20053;-79
2020/12/11 04:46:52;;;;;;;23.93;12.47;;;;;;;-0.91;86.03;97611.69;5052977;28;20049;-79
2020/12/11 04:49:19;;;;;;;24.67;12.33;;;;;;;-0.92;86.16;97625.19;5068289;28;20102;-79
2020/12/11 04:51:49;;;;;;;22.80;12.20;;;;;;;-1.01;86.17;97613.59;5073227;28;20492;-78
2020/12/11 04:54:19;;;;;;;23.77;12.33;;;;;;;-0.97;86.45;97635.47;5057890;28;20080;-78
2020/12/11 04:56:49;;;;;;;24.63;12.07;;;;;;;-0.97;86.93;97627.47;5053397;28;20048;-81
2020/12/11 04:59:17;;;;;;;26.87;12.57;;;;;;;-1.04;86.34;97623.72;5053051;28;20095;-79
2020/12/11 05:01:44;;;;;;;24.80;12.77;;;;;;;-1.09;86.12;97616.16;5052896;28;20065;-80
2020/12/11 05:04:10;;;;;;;22.20;12.03;;;;;;;-1.01;85.80;97629.63;5053005;28;20049;-79
2020/12/11 05:06:36;;;;;;;25.73;12.27;;;;;;;-1.19;85.96;97607.38;5053062;28;20106;-79
2020/12/11 05:09:14;;;;;;;23.80;12.23;;;;;;;-1.14;85.58;97607.78;5054875;28;20059;-79
2020/12/11 05:11:42;;;;;;;22.10;12.43;;;;;;;-1.08;86.06;97618.69;5057944;28;20053;-79
2020/12/11 05:14:23;;;;;;;29.77;13.10;;;;;;;-1.14;85.53;97608.63;5056606;28;20052;-79
2020/12/11 05:17:00;;;;;;;26.80;13.07;;;;;;;-1.16;86.03;97607.06;5056416;28;20041;-79
2020/12/11 05:19:28;;;;;;;25.13;12.93;;;;;;;-1.19;85.61;97589.56;5056679;28;20053;-79
2020/12/11 05:21:54;;;;;;;28.27;13.27;;;;;;;-1.29;86.17;97588.78;5062101;28;20057;-79
2020/12/11 05:24:21;;;;;;;26.07;13.13;;;;;;;-1.29;85.68;97594.09;5076256;28;20610;-79
2020/12/11 05:26:47;;;;;;;25.23;12.90;;;;;;;-1.36;85.87;97601.00;5066485;28;20075;-79
2020/12/11 05:29:13;;;;;;;25.40;12.97;;;;;;;-1.36;86.36;97611.69;5056322;28;20056;-79
2020/12/11 05:31:45;;;;;;;27.83;13.03;;;;;;;-1.46;86.38;97582.38;5056466;28;20045;-79
2020/12/11 05:34:13;;;;;;;24.27;12.90;;;;;;;-1.51;86.70;97587.34;5056392;28;20061;-79
2020/12/11 05:36:51;;;;;;;24.33;12.90;;;;;;;-1.63;86.57;97584.00;5056188;28;20041;-79
2020/12/11 05:39:30;;;;;;;25.40;13.13;;;;;;;-1.70;86.97;97590.91;5056550;28;20052;-79
2020/12/11 05:41:57;;;;;;;29.50;13.93;;;;;;;-1.61;86.75;97603.38;5056534;28;20135;-79
2020/12/11 05:44:30;;;;;;;23.30;12.37;;;;;;;-1.75;86.88;97577.19;5057757;28;20057;-79
2020/12/11 05:46:59;;;;;;;25.50;13.03;;;;;;;-1.71;87.30;97597.25;5056350;28;20055;-79
2020/12/11 05:49:30;;;;;;;28.67;13.73;;;;;;;-1.55;87.32;97617.94;5062751;28;20101;-79
2020/12/11 05:52:13;;;;;;;27.00;13.20;;;;;;;-1.74;87.30;97582.38;5076220;28;20048;-80
2020/12/11 05:54:44;;;;;;;29.27;14.07;;;;;;;-1.58;87.12;97605.75;5043072;28;20107;-79
2020/12/11 05:57:12;;;;;;;34.40;12.70;;;;;;;-1.80;87.36;97581.13;5056311;28;20056;-80
2020/12/11 05:59:39;;;;;;;23.73;12.30;;;;;;;-1.62;86.67;97607.84;5055682;28;20448;-79
2020/12/11 06:02:07;;;;;;;30.43;12.87;;;;;;;-1.68;86.30;97595.13;5056206;28;20041;-80
2020/12/11 06:04:33;;;;;;;30.03;13.37;;;;;;;-1.70;86.40;97594.44;5055682;28;20071;-80
2020/12/11 06:07:00;;;;;;;30.70;13.17;;;;;;;-1.84;87.11;97565.59;5055559;28;20546;-80
2020/12/11 06:09:35;;;;;;;28.27;11.77;;;;;;;-1.82;87.34;97575.13;5054635;28;20487;-80
2020/12/11 06:12:02;;;;;;;30.13;14.23;;;;;;;-1.63;87.37;97584.00;5053391;28;20132;-80
2020/12/11 06:14:43;;;;;;;29.23;13.40;;;;;;;-1.74;87.14;97566.41;5053363;28;20060;-80
2020/12/11 06:17:12;;;;;;;30.43;13.00;;;;;;;-1.79;87.48;97574.00;5053276;28;20052;-80
2020/12/11 06:19:41;;;;;;;35.00;13.15;;;;;;;-1.76;88.05;97588.81;5052255;28;20053;-80
2020/12/11 06:22:07;;;;;;;31.43;13.43;;;;;;;-1.86;88.38;97581.72;5053698;28;20488;-80
2020/12/11 06:24:34;;;;;;;29.43;14.57;;;;;;;-1.73;87.92;97580.53;5053639;28;20049;-79
2020/12/11 06:27:02;;;;;;;34.00;15.40;;;;;;;-1.71;87.74;97581.25;5053612;28;20136;-80
2020/12/11 06:29:30;;;;;;;33.37;16.10;;;;;;;-1.94;87.95;97544.31;5053367;28;20049;-79
2020/12/11 06:31:57;;;;;;;30.30;13.93;;;;;;;-1.79;88.01;97571.34;5053376;28;20550;-79
2020/12/11 06:34:25;;;;;;;31.50;14.13;;;;;;;-1.81;87.83;97558.16;5053268;28;20101;-79
2020/12/11 06:36:52;;;;;;;30.37;13.83;;;;;;;-1.75;87.40;97563.88;5053100;28;20131;-80
2020/12/11 06:39:40;;;;;;;30.10;14.33;;;;;;;-1.59;87.44;97564.09;5052084;28;20083;-80
2020/12/11 06:42:08;;;;;;;30.93;14.47;;;;;;;-1.69;86.72;97544.63;5053241;28;20056;-81
2020/12/11 06:44:35;;;;;;;31.87;14.37;;;;;;;-1.59;87.07;97560.59;5053113;28;20485;-80
2020/12/11 06:47:09;;;;;;;27.57;14.80;;;;;;;-1.81;87.42;97541.31;5053046;28;20049;-79
2020/12/11 06:49:57;;;;;;;38.83;15.87;;;;;;;-1.83;87.51;97520.16;5053113;28;20083;-79
2020/12/11 06:52:33;;;;;;;32.10;15.47;;;;;;;-1.62;87.36;97533.22;5052648;28;20056;-79
2020/12/11 06:54:59;;;;;;;37.80;14.80;;;;;;;-1.70;88.11;97529.63;5052100;28;20045;-79
2020/12/11 06:57:34;;;;;;;29.73;13.77;;;;;;;-1.69;87.29;97523.31;5053146;28;20048;-78
2020/12/11 07:00:34;;;;;;;35.17;16.30;;;;;;;-1.64;87.23;97513.03;5053431;28;20072;-79
2020/12/11 07:03:16;;;;;;;32.17;14.33;;;;;;;-1.68;86.92;97504.53;5040669;28;20045;-79
2020/12/11 07:05:43;;;;;;;35.67;15.87;;;;;;;-1.65;87.67;97506.88;5050515;28;20106;-79
2020/12/11 07:08:13;;;;;;;33.10;15.17;;;;;;;-1.51;86.60;97502.03;5052489;28;20068;-79
2020/12/11 07:10:40;;;;;;;36.93;15.73;;;;;;;-1.54;86.44;97492.50;5053035;28;20056;-78
2020/12/11 07:13:08;;;;;;;35.73;16.13;;;;;;;-1.38;86.48;97501.69;5052428;28;20103;-79
2020/12/11 07:15:34;;;;;;;33.43;15.80;;;;;;;-1.46;86.81;97513.94;5052708;28;20489;-79
2020/12/11 07:18:01;;;;;;;35.63;15.10;;;;;;;-1.47;87.24;97508.75;5043628;28;20056;-79
2020/12/11 07:20:27;;;;;;;33.73;14.23;;;;;;;-1.57;87.01;97499.97;5033090;28;20089;-79
2020/12/11 07:22:59;;;;;;;36.47;15.23;;;;;;;-1.42;87.28;97517.13;5045596;28;20049;-79
2020/12/11 07:25:27;;;;;;;38.23;15.30;;;;;;;-1.43;87.48;97521.63;5052717;28;20087;-79
2020/12/11 07:27:58;;;;;;;33.67;14.53;;;;;;;-1.54;87.82;97497.84;5051701;28;20072;-79
2020/12/11 07:30:24;;;;;;;35.77;16.03;;;;;;;-1.45;88.38;97496.13;5052556;28;20053;-79
2020/12/11 07:32:52;;;;;;;33.37;14.33;;;;;;;-1.67;87.85;97465.38;5054569;28;20558;-79
2020/12/11 07:35:20;;;;;;;34.10;15.00;;;;;;;-1.58;87.45;97476.97;5073668;28;20741;-79
2020/12/11 07:37:49;;;;;;;37.23;15.43;;;;;;;-1.53;87.98;97470.22;5073928;28;20051;-79
2020/12/11 07:40:18;;;;;;;36.70;16.35;;;;;;;-1.43;87.51;97480.78;5054608;28;20114;-79
2020/12/11 07:42:44;;;;;;;37.00;16.37;;;;;;;-1.43;87.56;97462.13;5051864;28;20064;-79
2020/12/11 07:45:11;;;;;;;38.63;16.37;;;;;;;-1.40;87.36;97467.19;5051545;28;20516;-79
2020/12/11 07:47:37;;;;;;;34.77;16.00;;;;;;;-1.40;87.35;97474.34;5052425;28;20061;-79
2020/12/11 07:50:06;;;;;;;31.80;13.33;;;;;;;-1.28;87.45;97467.78;5052515;28;20075;-79
2020/12/11 07:52:32;;;;;;;39.10;15.73;;;;;;;-1.16;86.88;97471.94;5052368;28;20052;-79
2020/12/11 07:54:59;;;;;;;38.33;14.73;;;;;;;-1.08;86.96;97461.31;5051794;28;20059;-79
2020/12/11 07:57:26;;;;;;;42.77;16.97;;;;;;;-1.15;86.68;97446.09;5052267;28;20045;-79
2020/12/11 07:59:59;;;;;;;37.57;15.63;;;;;;;-1.19;86.13;97431.38;5052004;28;20120;-79
2020/12/11 08:02:27;;;;;;;32.17;14.17;;;;;;;-1.14;86.79;97450.44;5051720;28;20048;-79
2020/12/11 08:04:54;;;;;;;35.27;15.60;;;;;;;-1.12;86.66;97453.78;5052440;28;20061;-79
2020/12/11 08:07:23;;;;;;;37.10;15.40;;;;;;;-1.21;87.01;97444.88;5052060;28;20122;-79
2020/12/11 08:09:50;;;;;;;35.83;15.75;;;;;;;-1.18;86.76;97444.56;5052227;28;20053;-79
2020/12/11 08:12:19;;;;;;;33.70;15.83;;;;;;;-1.10;86.51;97452.66;5051615;28;20056;-79
2020/12/11 08:14:47;;;;;;;38.00;17.30;;;;;;;-1.11;86.39;97453.63;5051851;28;20507;-80
2020/12/11 08:17:14;;;;;;;38.13;16.93;;;;;;;-1.11;86.20;97442.13;5051044;28;20357;-79
2020/12/11 08:19:42;;;;;;;38.03;15.97;;;;;;;-1.07;86.32;97465.69;5051139;28;20055;-79
2020/12/11 08:22:12;;;;;;;36.57;16.27;;;;;;;-0.95;86.58;97463.59;5052066;28;20045;-79
2020/12/11 08:24:39;;;;;;;33.17;15.48;;;;;;;-0.95;85.81;97463.59;5051495;28;20084;-79
2020/12/11 08:27:05;;;;;;;41.93;16.40;;;;;;;-0.86;86.14;97453.00;5052292;28;20052;-79
2020/12/11 08:29:32;;;;;;;33.53;14.27;;;;;;;-0.86;86.21;97435.16;5051315;28;20049;-79
2020/12/11 08:31:59;;;;;;;35.93;14.20;;;;;;;-0.68;84.77;97456.47;5051880;28;20095;-79
2020/12/11 08:34:29;;;;;;;33.73;14.13;;;;;;;-0.67;85.06;97463.47;5051229;28;20102;-79
2020/12/11 08:37:02;;;;;;;35.10;13.37;;;;;;;-0.77;84.75;97455.59;5050915;28;20044;-79
2020/12/11 08:39:29;;;;;;;48.60;16.30;;;;;;;-0.74;85.35;97459.75;5051136;28;20056;-79
2020/12/11 08:42:16;;;;;;;32.57;14.83;;;;;;;-0.69;84.98;97452.13;5051271;28;20104;-79
2020/12/11 08:47:49;;;;;;;37.10;16.47;;;;;;;-0.68;85.19;97445.78;5036238;28;20089;-79
2020/12/11 08:50:29;;;;;;;37.50;15.87;;;;;;;-0.67;84.76;97436.78;5051516;28;20041;-79
2020/12/11 08:52:56;;;;;;;37.10;15.68;;;;;;;-0.49;84.98;97449.25;5045339;28;20056;-79
2020/12/11 08:55:22;;;;;;;30.37;14.33;;;;;;;-0.49;84.56;97444.75;5051234;28;20056;-79
2020/12/11 08:57:49;;;;;;;29.53;14.60;;;;;;;-0.39;84.39;97448.16;5050762;28;20037;-79
2020/12/11 09:00:16;;;;;;;31.83;14.80;;;;;;;-0.38;84.64;97432.97;5051384;28;20055;-79
2020/12/11 09:02:43;;;;;;;34.30;15.80;;;;;;;-0.19;83.75;97442.59;5051029;28;20052;-80
2020/12/11 09:05:10;;;;;;;32.73;15.20;;;;;;;-0.25;83.87;97446.72;5051156;28;20111;-79
2020/12/11 09:07:36;;;;;;;35.47;15.40;;;;;;;-0.36;83.30;97426.47;5051049;28;20041;-79
2020/12/11 09:10:02;;;;;;;31.17;14.00;;;;;;;-0.14;83.43;97448.28;5051037;28;20044;-79
2020/12/11 09:12:29;;;;;;;33.43;16.07;;;;;;;0.06;82.72;97432.88;5051281;28;20460;-79
2020/12/11 09:14:55;;;;;;;37.23;15.47;;;;;;;0.08;82.73;97417.50;5050553;28;20452;-79
2020/12/11 09:17:21;;;;;;;31.57;15.53;;;;;;;0.24;80.36;97411.38;5050242;28;20489;-79
2020/12/11 09:19:48;;;;;;;32.77;14.63;;;;;;;0.26;81.73;97419.25;5050532;28;20098;-79
2020/12/11 09:22:15;;;;;;;30.77;13.67;;;;;;;0.33;80.10;97430.94;5051487;28;20414;-79
2020/12/11 09:24:41;;;;;;;30.23;14.60;;;;;;;0.22;81.22;97421.38;5050437;28;20061;-79
2020/12/11 09:27:08;;;;;;;35.83;14.77;;;;;;;0.25;80.99;97437.09;5051360;28;20056;-79
2020/12/11 09:29:36;;;;;;;32.07;13.53;;;;;;;0.25;80.16;97423.72;5051090;28;20052;-79
2020/12/11 09:32:05;;;;;;;26.27;11.03;;;;;;;0.32;80.05;97418.59;5051086;28;20132;-79
2020/12/11 09:34:32;;;;;;;28.70;13.90;;;;;;;0.40;79.87;97409.75;5050684;28;20132;-79
2020/12/11 09:37:02;;;;;;;32.37;12.87;;;;;;;0.53;80.05;97426.16;5048915;28;20045;-79
2020/12/11 09:39:29;;;;;;;30.63;13.57;;;;;;;0.50;79.15;97418.47;5030998;28;20057;-79
2020/12/11 09:42:00;;;;;;;29.67;14.43;;;;;;;0.43;80.18;97409.41;5046785;28;20049;-79
2020/12/11 09:44:46;;;;;;;25.93;12.70;;;;;;;0.53;79.56;97416.28;5050521;28;20060;-79
2020/12/11 09:47:35;;;;;;;26.83;13.37;;;;;;;0.55;79.92;97426.81;5050671;28;20075;-79
2020/12/11 09:50:12;;;;;;;30.90;13.33;;;;;;;0.65;80.21;97422.16;5050956;28;20072;-79
2020/12/11 09:52:51;;;;;;;27.20;11.97;;;;;;;0.50;80.14;97408.59;5050597;28;20077;-79
2020/12/11 09:55:17;;;;;;;26.87;12.67;;;;;;;0.58;79.85;97412.28;5052928;28;20049;-79
2020/12/11 09:57:43;;;;;;;26.17;13.30;;;;;;;0.65;79.95;97426.69;5053886;28;20504;-79
2020/12/11 10:00:10;;;;;;;31.33;13.70;;;;;;;0.67;79.42;97427.34;5053629;28;20087;-78
2020/12/11 10:02:50;;;;;;;29.93;14.00;;;;;;;0.59;79.58;97406.78;5054230;28;20056;-78
2020/12/11 10:05:16;;;;;;;24.63;12.02;;;;;;;0.57;79.64;97397.22;5053277;28;20060;-78
2020/12/11 10:07:43;;;;;;;30.97;13.70;;;;;;;0.81;79.71;97407.97;5054275;28;20049;-79
2020/12/11 10:10:09;;;;;;;29.87;14.40;;;;;;;0.79;78.95;97393.91;5053970;28;20444;-79
2020/12/11 10:12:35;;;;;;;30.17;13.70;;;;;;;0.93;78.42;97413.81;5054279;28;20053;-79
2020/12/11 10:15:06;;;;;;;26.03;12.83;;;;;;;0.83;79.58;97395.25;5053634;28;20095;-79
2020/12/11 10:17:31;;;;;;;;;;;;;;;0.93;79.14;97407.63;5054097;28;20051;-79
2020/12/11 10:19:58;;;;;;;28.00;13.13;;;;;;;0.84;79.36;97380.91;5053942;28;19925;-79
2020/12/11 10:22:24;;;;;;;23.37;12.23;;;;;;;0.89;78.07;97377.72;5054057;28;20053;-79
2020/12/11 10:24:54;;;;;;;30.40;13.68;;;;;;;0.90;79.22;97362.47;5053744;28;20099;-79
2020/12/11 10:27:20;;;;;;;29.15;14.23;;;;;;;0.81;78.27;97351.81;5035783;28;20524;-79
2020/12/11 10:29:46;;;;;;;30.63;12.73;;;;;;;0.99;78.61;97367.66;5054145;28;20057;-79
2020/12/11 10:32:12;;;;;;;26.37;13.23;;;;;;;1.05;77.50;97350.94;5053942;28;20110;-79
2020/12/11 10:34:39;;;;;;;29.43;12.93;;;;;;;1.15;77.42;97342.72;5053533;28;20452;-78
2020/12/11 10:37:08;;;;;;;26.23;12.27;;;;;;;1.09;78.93;97351.44;5053682;28;20378;-78
2020/12/11 10:39:35;;;;;;;24.25;11.82;;;;;;;1.09;78.24;97348.75;5053694;28;20122;-78
2020/12/11 10:42:06;;;;;;;27.93;12.60;;;;;;;1.17;79.37;97355.94;5053313;28;20045;-79
2020/12/11 10:44:32;;;;;;;31.27;13.82;;;;;;;1.21;79.07;97338.53;5053278;28;20567;-79
2020/12/11 10:46:59;;;;;;;24.83;12.47;;;;;;;1.27;77.14;97340.53;5053699;28;20497;-78
2020/12/11 10:49:25;;;;;;;28.03;12.73;;;;;;;1.16;77.61;97322.13;5053630;28;20079;-78
2020/12/11 10:51:52;;;;;;;24.63;12.27;;;;;;;1.31;77.89;97344.53;5053684;28;20049;-78
2020/12/11 10:54:18;;;;;;;26.50;12.60;;;;;;;1.31;78.64;97324.94;5053120;28;20417;-79
2020/12/11 10:56:45;;;;;;;25.53;12.50;;;;;;;1.31;77.62;97333.84;5053233;28;20102;-78
2020/12/11 10:59:13;;;;;;;25.60;12.10;;;;;;;1.36;78.10;97314.56;5052957;28;20041;-78
2020/12/11 11:01:39;;;;;;;24.43;11.97;;;;;;;1.48;76.80;97333.78;5052980;28;20045;-78
2020/12/11 11:04:07;;;;;;;25.67;12.07;;;;;;;1.30;78.35;97313.41;5053110;28;20114;-78
2020/12/11 11:06:36;;;;;;;25.13;12.47;;;;;;;1.53;77.64;97326.06;5052849;28;20448;-79
2020/12/11 11:09:15;;;;;;;27.35;11.73;;;;;;;1.52;78.12;97316.34;5053142;28;20045;-79
2020/12/11 11:11:44;;;;;;;31.73;14.50;;;;;;;1.65;78.44;97315.81;5051834;28;20147;-79
2020/12/11 11:14:18;;;;;;;28.17;14.32;;;;;;;1.72;78.04;97316.78;5052863;28;20045;-79
2020/12/11 11:19:34;;;;;;;23.60;12.63;;;;;;;1.77;77.07;97298.34;5052449;28;20045;-79
2020/12/11 11:22:20;;;;;;;25.30;11.30;;;;;;;1.65;76.98;97294.38;5052351;28;20045;-79
2020/12/11 11:25:09;;;;;;;22.80;11.85;;;;;;;1.52;77.54;97269.00;5052225;28;20128;-79
2020/12/11 11:27:38;;;;;;;23.63;12.00;;;;;;;1.67;77.95;97284.31;5052296;28;20084;-79
2020/12/11 11:30:05;;;;;;;24.13;13.63;;;;;;;1.73;78.50;97275.56;5052678;28;20068;-79
2020/12/11 11:32:32;;;;;;;27.23;13.63;;;;;;;1.84;78.92;97279.72;5052433;28;20053;-79